Time;durP1;ratioP1;P1;durP2;ratioP2;P2;SDS_P1;SDS_P2;PMS_P1;PMS_P2;Temp;Humidity;BMP_temperature;BMP_pressure;BME280_temperature;BME280_humidity;BME280_pressure;Samples;Min_cycle;Max_cycle;Signal;HPM_P1;HPM_P2
2022/04/02 00:00:16;;;;;;;2.37;0.70;;;2.50;99.90;;;;;;5075963;28;20051;-82
2022/04/02 00:02:44;;;;;;;6.03;1.13;;;2.50;99.90;;;;;;5082732;27;20058;-81
2022/04/02 00:05:11;;;;;;;3.70;1.00;;;2.50;99.90;;;;;;5083024;28;20390;-81
2022/04/02 00:07:38;;;;;;;1.87;0.80;;;2.50;99.90;;;;;;5067051;28;20043;-82
2022/04/02 00:10:07;;;;;;;3.13;1.20;;;2.50;99.90;;;;;;5079867;27;20035;-81
2022/04/02 00:12:34;;;;;;;2.17;0.83;;;2.50;99.90;;;;;;5078727;28;20046;-81
2022/04/02 00:15:01;;;;;;;2.90;1.07;;;2.50;99.90;;;;;;5081230;27;20031;-81
2022/04/02 00:17:28;;;;;;;5.47;1.77;;;2.50;99.90;;;;;;5117122;27;20035;-82
2022/04/02 00:19:57;;;;;;;6.57;1.10;;;2.50;99.90;;;;;;5110821;27;20040;-81
2022/04/02 00:22:26;;;;;;;3.40;1.00;;;2.50;99.90;;;;;;5079345;28;20031;-81
2022/04/02 00:25:31;;;;;;;1.73;1.00;;;2.40;99.90;;;;;;5113442;27;20028;-81
2022/04/02 00:28:57;;;;;;;2.93;0.87;;;2.50;99.90;;;;;;5112488;27;21543;-84
2022/04/02 00:31:52;;;;;;;3.27;1.13;;;2.40;99.90;;;;;;5072592;28;20040;-85
2022/04/02 00:35:31;;;;;;;5.40;1.60;;;2.40;99.90;;;;;;5079668;28;20044;-85
2022/04/02 00:38:22;;;;;;;3.60;1.13;;;2.40;99.90;;;;;;5053385;28;20036;-85
2022/04/02 00:41:19;;;;;;;3.60;1.17;;;2.40;99.90;;;;;;5073900;28;20059;-84
2022/04/02 00:44:55;;;;;;;2.20;1.03;;;2.40;99.90;;;;;;5062640;28;20399;-85
2022/04/02 00:47:24;;;;;;;2.43;1.00;;;2.40;99.90;;;;;;5066986;28;20044;-84
2022/04/02 00:49:54;;;;;;;2.47;1.07;;;2.40;99.90;;;;;;5079611;28;20048;-81
2022/04/02 00:52:31;;;;;;;3.03;1.13;;;2.30;99.90;;;;;;5050369;28;20047;-80
2022/04/02 00:56:12;;;;;;;2.97;0.90;;;2.30;99.90;;;;;;5059172;28;20502;-80
2022/04/02 01:03:47;;;;;;;2.60;0.87;;;2.30;99.90;;;;;;5050469;28;20491;-81
2022/04/02 01:14:24;;;;;;;2.83;1.10;;;2.20;99.90;;;;;;5033989;28;20048;-81
2022/04/02 01:17:40;;;;;;;2.27;1.00;;;2.20;99.90;;;;;;5053534;27;20027;-80
2022/04/02 01:33:55;;;;;;;2.77;0.90;;;2.20;99.90;;;;;;5030009;28;20057;-81
2022/04/02 01:36:53;;;;;;;2.40;1.03;;;2.20;99.90;;;;;;5021405;28;20045;-81
2022/04/02 01:43:41;;;;;;;3.10;0.97;;;2.20;99.90;;;;;;4965940;28;20062;-81
2022/04/02 01:46:29;;;;;;;2.37;0.90;;;2.20;99.90;;;;;;5057410;28;20487;-81
2022/04/02 01:49:22;;;;;;;3.23;0.97;;;2.20;99.90;;;;;;5037836;28;20040;-80
2022/04/02 01:52:32;;;;;;;2.30;0.90;;;2.20;99.90;;;;;;5023985;28;20048;-81
2022/04/02 01:55:06;;;;;;;2.93;1.37;;;2.30;99.90;;;;;;5041875;28;20047;-83
2022/04/02 02:08:05;;;;;;;3.83;1.00;;;2.30;99.90;;;;;;4803849;29;20042;-80
2022/04/02 02:12:20;;;;;;;3.20;1.00;;;2.20;99.90;;;;;;4802151;29;20140;-80
2022/04/02 02:15:49;;;;;;;3.43;0.93;;;2.10;99.90;;;;;;4806341;29;20114;-81
2022/04/02 02:18:35;;;;;;;2.80;0.77;;;2.20;99.90;;;;;;4886420;29;20507;-80
2022/04/02 02:21:02;;;;;;;2.77;0.90;;;2.10;99.90;;;;;;4926701;28;20060;-80
2022/04/02 02:23:32;;;;;;;2.33;0.80;;;2.10;99.90;;;;;;5017545;28;20534;-79
2022/04/02 02:25:58;;;;;;;1.87;0.73;;;2.10;99.90;;;;;;5014908;28;20051;-79
2022/04/02 02:28:32;;;;;;;2.20;0.90;;;2.10;99.90;;;;;;5013693;28;20060;-78
2022/04/02 02:31:16;;;;;;;3.07;0.90;;;2.10;99.90;;;;;;5031337;28;20024;-79
2022/04/02 02:36:57;;;;;;;2.20;1.03;;;2.10;99.90;;;;;;5005677;28;20040;-79
2022/04/02 02:39:28;;;;;;;3.00;1.02;;;2.00;99.90;;;;;;5003672;28;20052;-79
2022/04/02 02:42:11;;;;;;;4.47;1.27;;;2.00;99.90;;;;;;5005922;28;20068;-79
2022/04/02 02:44:48;;;;;;;4.50;1.27;;;2.00;99.90;;;;;;5020132;28;20413;-80
2022/04/02 02:47:26;;;;;;;3.17;1.27;;;2.00;99.90;;;;;;5035400;28;20608;-79
2022/04/02 02:49:53;;;;;;;2.43;0.93;;;1.90;99.90;;;;;;5059601;28;20407;-79
2022/04/02 02:52:27;;;;;;;4.15;1.00;;;2.00;99.90;;;;;;5055543;28;20036;-80
2022/04/02 02:55:12;;;;;;;3.63;0.80;;;2.00;99.90;;;;;;5061382;28;20416;-79
2022/04/02 02:57:51;;;;;;;3.00;1.10;;;2.00;99.90;;;;;;5062385;28;20040;-79
2022/04/02 03:00:26;;;;;;;2.70;0.90;;;2.00;99.90;;;;;;5074622;28;20027;-80
2022/04/02 03:03:22;;;;;;;2.30;1.00;;;2.00;99.90;;;;;;5082528;28;20044;-79
2022/04/02 03:06:08;;;;;;;2.13;0.70;;;1.90;99.90;;;;;;5061357;28;20047;-80
2022/04/02 03:08:41;;;;;;;4.30;0.80;;;1.90;99.90;;;;;;5075623;28;20031;-80
2022/04/02 03:11:08;;;;;;;3.57;0.90;;;1.90;99.90;;;;;;5057072;28;20035;-78
2022/04/02 03:13:38;;;;;;;4.07;1.20;;;1.90;99.90;;;;;;5060879;28;20047;-79
2022/04/02 03:16:33;;;;;;;2.10;0.90;;;1.90;99.90;;;;;;5091818;28;20040;-79
2022/04/02 03:19:03;;;;;;;2.30;0.80;;;1.90;99.90;;;;;;5088734;28;20351;-79
2022/04/02 03:21:30;;;;;;;2.53;0.90;;;1.80;99.90;;;;;;5106288;28;20046;-78
2022/04/02 03:23:59;;;;;;;2.40;0.70;;;1.80;99.90;;;;;;5045158;28;20439;-79
2022/04/02 03:26:28;;;;;;;2.37;0.80;;;1.80;99.90;;;;;;5064350;27;20038;-78
2022/04/02 03:28:58;;;;;;;2.90;0.60;;;1.80;99.90;;;;;;5076760;27;20042;-78
2022/04/02 03:31:28;;;;;;;2.40;0.80;;;1.80;99.90;;;;;;5093568;27;20039;-78
2022/04/02 03:33:56;;;;;;;3.10;1.30;;;1.80;99.90;;;;;;5095168;27;20042;-78
2022/04/02 03:36:23;;;;;;;3.80;1.23;;;1.80;99.90;;;;;;5069107;27;20032;-79
2022/04/02 03:38:49;;;;;;;3.00;0.90;;;1.80;99.90;;;;;;5105884;27;20038;-78
2022/04/02 03:41:18;;;;;;;2.90;0.90;;;1.70;99.90;;;;;;5079833;27;20490;-78
2022/04/02 03:43:50;;;;;;;8.77;1.30;;;1.70;99.90;;;;;;5089288;27;20035;-78
2022/04/02 03:49:06;;;;;;;2.40;0.83;;;1.70;99.90;;;;;;5131420;27;20680;-78
2022/04/02 03:51:33;;;;;;;2.90;1.27;;;1.70;99.90;;;;;;5086082;27;20039;-78
2022/04/02 03:54:03;;;;;;;3.33;0.90;;;1.70;99.90;;;;;;5053265;27;20046;-79
2022/04/02 03:56:31;;;;;;;4.67;1.20;;;1.70;99.90;;;;;;5102569;27;20039;-78
2022/04/02 03:59:03;;;;;;;2.90;0.88;;;1.70;99.90;;;;;;5066641;27;20042;-79
2022/04/02 04:01:30;;;;;;;4.00;2.10;;;1.70;99.90;;;;;;5072214;28;20043;-79
2022/04/02 04:03:56;;;;;;;3.87;1.27;;;1.70;99.90;;;;;;5087104;28;20046;-77
2022/04/02 04:06:23;;;;;;;2.67;0.90;;;1.70;99.90;;;;;;5082189;27;20046;-78
2022/04/02 04:08:52;;;;;;;2.67;1.30;;;1.70;99.90;;;;;;5043350;28;20047;-79
2022/04/02 04:11:19;;;;;;;2.93;1.13;;;1.70;99.90;;;;;;5069479;27;20052;-78
2022/04/02 04:13:50;;;;;;;3.27;0.93;;;1.60;99.90;;;;;;5053129;28;20050;-79
2022/04/02 04:16:17;;;;;;;3.93;1.20;;;1.70;99.90;;;;;;5078985;28;20050;-79
2022/04/02 04:18:45;;;;;;;2.57;1.20;;;1.60;99.90;;;;;;5070934;28;20043;-79
2022/04/02 04:21:19;;;;;;;3.03;1.03;;;1.60;99.90;;;;;;5063014;28;20040;-79
2022/04/02 04:23:52;;;;;;;2.93;1.20;;;1.60;99.90;;;;;;5110435;27;20043;-79
2022/04/02 04:26:22;;;;;;;2.43;0.90;;;1.60;99.90;;;;;;5112281;27;20036;-79
2022/04/02 04:28:49;;;;;;;4.23;1.30;;;1.60;99.90;;;;;;5112757;27;20442;-79
2022/04/02 04:31:20;;;;;;;3.47;0.80;;;1.60;99.90;;;;;;5074208;27;20035;-79
2022/04/02 04:33:53;;;;;;;2.10;1.10;;;1.60;99.90;;;;;;5091619;28;20103;-79
2022/04/02 04:36:20;;;;;;;2.83;1.20;;;1.60;99.90;;;;;;5092861;28;20040;-79
2022/04/02 04:38:52;;;;;;;3.50;1.00;;;1.50;99.90;;;;;;5112640;27;20036;-79
2022/04/02 04:41:23;;;;;;;3.80;1.33;;;1.50;99.90;;;;;;5065059;27;20054;-79
2022/04/02 04:43:55;;;;;;;3.93;1.43;;;1.50;99.90;;;;;;5096072;27;20491;-79
2022/04/02 04:46:46;;;;;;;3.20;0.80;;;1.50;99.90;;;;;;5100535;27;20032;-78
2022/04/02 04:49:25;;;;;;;5.83;1.07;;;1.50;99.90;;;;;;5079457;27;20031;-78
2022/04/02 04:52:00;;;;;;;3.30;1.27;;;1.60;99.90;;;;;;5098810;27;20046;-79
2022/04/02 04:55:00;;;;;;;5.63;1.10;;;1.60;99.90;;;;;;5090421;27;20047;-79
2022/04/02 04:57:41;;;;;;;4.53;1.10;;;1.60;99.90;;;;;;5111200;27;20046;-80
2022/04/02 05:00:15;;;;;;;3.17;1.17;;;1.70;99.90;;;;;;5080102;27;20047;-81
2022/04/02 05:03:22;;;;;;;1.93;1.10;;;1.70;99.90;;;;;;5098611;27;20051;-81
2022/04/02 05:06:13;;;;;;;4.73;1.00;;;1.70;99.90;;;;;;5080967;28;20036;-81
2022/04/02 05:08:45;;;;;;;3.13;1.20;;;1.70;99.90;;;;;;5077886;28;20048;-79
2022/04/02 05:11:14;;;;;;;2.40;1.00;;;1.70;99.90;;;;;;5057330;28;20055;-79
2022/04/02 05:13:49;;;;;;;4.60;0.90;;;1.70;99.90;;;;;;5044648;28;20032;-79
2022/04/02 05:16:24;;;;;;;3.45;1.38;;;1.80;99.90;;;;;;5074297;28;20066;-78
2022/04/02 05:18:53;;;;;;;4.90;1.48;;;1.80;99.90;;;;;;5026743;28;20035;-81
2022/04/02 05:21:33;;;;;;;5.60;1.20;;;1.80;99.90;;;;;;5091754;28;20056;-80
2022/04/02 05:24:28;;;;;;;3.77;1.10;;;1.80;99.90;;;;;;5077561;28;20039;-80
2022/04/02 05:27:00;;;;;;;3.60;1.20;;;1.80;99.90;;;;;;5088391;28;20047;-80
2022/04/02 05:29:27;;;;;;;2.93;1.17;;;1.70;99.90;;;;;;5086622;28;20036;-80
2022/04/02 05:31:58;;;;;;;3.13;1.30;;;1.70;99.90;;;;;;5074635;28;20043;-80
2022/04/02 05:34:27;;;;;;;6.03;1.30;;;1.60;99.90;;;;;;5074604;28;20382;-80
2022/04/02 05:37:01;;;;;;;2.07;0.80;;;1.70;99.90;;;;;;5091243;28;20032;-80
2022/04/02 05:39:29;;;;;;;3.87;1.40;;;1.60;99.90;;;;;;5075631;28;20039;-81
2022/04/02 05:42:00;;;;;;;3.50;1.03;;;1.60;99.90;;;;;;5074166;28;20035;-81
2022/04/02 05:44:30;;;;;;;3.60;1.00;;;1.60;99.90;;;;;;5091016;28;20027;-82
2022/04/02 05:47:05;;;;;;;4.73;1.50;;;1.60;99.90;;;;;;5090907;28;20390;-82
2022/04/02 05:49:33;;;;;;;6.07;1.83;;;1.50;99.90;;;;;;5089405;28;20035;-80
2022/04/02 05:52:04;;;;;;;7.33;3.07;;;1.50;99.90;;;;;;5073625;28;20046;-80
2022/04/02 05:54:31;;;;;;;10.70;4.50;;;1.50;99.90;;;;;;5108189;28;20027;-80
2022/04/02 05:56:58;;;;;;;6.80;2.63;;;1.50;99.90;;;;;;5091183;28;20035;-81
2022/04/02 05:59:26;;;;;;;5.43;2.10;;;1.50;99.90;;;;;;5072927;28;20039;-81
2022/04/02 06:01:56;;;;;;;4.07;2.00;;;1.50;99.90;;;;;;5106942;28;20047;-81
2022/04/02 06:04:25;;;;;;;4.40;1.60;;;1.50;99.90;;;;;;5091289;28;20027;-80
2022/04/02 06:06:54;;;;;;;4.00;1.50;;;1.50;99.90;;;;;;5076251;28;20044;-82
2022/04/02 06:09:26;;;;;;;9.53;4.60;;;1.50;99.90;;;;;;5089630;28;20032;-81
2022/04/02 06:12:04;;;;;;;9.50;4.40;;;1.50;99.90;;;;;;5057624;28;20050;-81
2022/04/02 06:14:44;;;;;;;7.67;3.40;;;1.50;99.90;;;;;;5074406;28;20047;-81
2022/04/02 06:17:49;;;;;;;18.60;8.07;;;1.50;99.90;;;;;;5040669;28;20032;-82
2022/04/02 06:20:24;;;;;;;5.80;1.90;;;1.50;99.90;;;;;;5050242;28;20036;-83
2022/04/02 06:23:00;;;;;;;4.20;1.40;;;1.60;99.90;;;;;;5091853;28;20391;-82
2022/04/02 06:25:30;;;;;;;5.63;1.33;;;1.60;99.90;;;;;;5091246;28;20032;-82
2022/04/02 06:27:57;;;;;;;3.77;1.57;;;1.70;99.90;;;;;;5072868;28;20058;-80
2022/04/02 06:30:23;;;;;;;4.93;1.40;;;1.80;99.90;;;;;;5065450;28;20043;-81
2022/04/02 06:32:50;;;;;;;5.10;1.40;;;1.80;99.90;;;;;;5041888;28;20032;-81
2022/04/02 06:35:26;;;;;;;3.10;1.33;;;1.90;99.90;;;;;;5075033;28;20047;-81
2022/04/02 06:37:56;;;;;;;3.93;1.50;;;2.00;99.90;;;;;;5065689;28;20047;-81
2022/04/02 06:40:26;;;;;;;4.33;1.57;;;2.10;99.90;;;;;;5073294;28;20031;-81
2022/04/02 06:42:59;;;;;;;4.77;1.30;;;2.20;99.90;;;;;;5071919;28;20050;-81
2022/04/02 06:45:40;;;;;;;2.53;1.70;;;2.30;99.90;;;;;;5090044;28;20038;-81
2022/04/02 06:48:13;;;;;;;5.30;2.17;;;2.40;99.90;;;;;;5087942;28;20054;-81
2022/04/02 06:50:43;;;;;;;5.63;1.77;;;2.50;99.90;;;;;;5057311;28;20044;-82
2022/04/02 06:53:20;;;;;;;3.93;1.67;;;2.60;99.90;;;;;;5073380;28;20039;-82
2022/04/02 06:55:59;;;;;;;6.00;1.60;;;2.70;99.90;;;;;;5073206;28;20475;-80
2022/04/02 06:58:43;;;;;;;4.73;1.70;;;2.80;99.90;;;;;;5080087;28;20051;-80
2022/04/02 07:01:20;;;;;;;3.27;1.70;;;2.90;99.90;;;;;;5084487;28;20047;-84
2022/04/02 07:04:32;;;;;;;6.57;1.97;;;3.00;99.90;;;;;;5111773;28;20031;-83
2022/04/02 07:08:18;;;;;;;4.13;1.47;;;3.20;99.90;;;;;;5035253;28;20040;-84
2022/04/02 07:11:25;;;;;;;7.20;2.07;;;3.40;99.90;;;;;;4985512;28;20047;-80
2022/04/02 07:14:30;;;;;;;3.00;1.70;;;3.40;99.90;;;;;;5054269;28;20039;-84
2022/04/02 07:21:32;;;;;;;2.50;1.23;;;3.40;99.90;;;;;;5033776;28;20043;-90
2022/04/02 07:28:34;;;;;;;7.57;3.53;;;3.70;99.90;;;;;;4993270;28;20054;-89
2022/04/02 07:40:05;;;;;;;6.67;1.80;;;4.40;99.90;;;;;;4980480;28;20038;-80
2022/04/02 07:48:19;;;;;;;6.33;3.10;;;4.40;99.90;;;;;;4918779;29;21174;-90
2022/04/02 07:51:46;;;;;;;4.40;2.60;;;4.60;99.90;;;;;;4859712;29;20052;-90
2022/04/02 07:55:06;;;;;;;5.33;2.27;;;4.70;99.90;;;;;;4818613;29;20729;-89
2022/04/02 07:59:10;;;;;;;9.33;1.93;;;4.80;99.90;;;;;;4849355;29;20034;-85
2022/04/02 08:06:27;;;;;;;4.03;1.73;;;4.90;99.90;;;;;;4838364;29;20060;-83
2022/04/02 08:09:42;;;;;;;8.90;2.30;;;4.80;99.90;;;;;;4872820;29;20044;-82
2022/04/02 08:29:55;;;;;;;4.43;2.00;;;5.00;99.90;;;;;;4990667;28;21094;-82
2022/04/02 08:47:28;;;;;;;5.37;2.70;;;6.10;99.90;;;;;;4926090;29;20047;-82
2022/04/02 08:55:07;;;;;;;5.45;2.30;;;6.50;99.90;;;;;;4974308;28;20042;-81
2022/04/02 09:00:07;;;;;;;;;;;;;;;;;;;;;
2022/04/02 09:04:17;;;;;;;;;;;;;;;;;;;;;
2022/04/02 09:08:08;;;;;;;4.55;2.25;;;6.80;99.50;;;;;;4899070;29;20097;-85
2022/04/02 09:15:29;;;;;;;4.57;1.90;;;6.60;99.40;;;;;;5042580;28;20464;-87
2022/04/02 09:18:37;;;;;;;5.35;2.22;;;6.40;99.80;;;;;;5047230;28;21220;-87
2022/04/02 09:22:11;;;;;;;;;;;;;;;;;;;;;
2022/04/02 09:30:12;;;;;;;3.50;2.00;;;6.00;99.90;;;;;;4981360;28;20143;-86
2022/04/02 09:33:51;;;;;;;4.60;2.05;;;5.90;99.90;;;;;;4995543;28;20068;-86
2022/04/02 09:37:04;;;;;;;3.85;2.03;;;5.90;99.90;;;;;;5009740;28;20057;-86
2022/04/02 09:40:37;;;;;;;5.00;2.20;;;5.90;99.90;;;;;;4991414;28;20046;-86
2022/04/02 09:43:47;;;;;;;7.13;2.30;;;6.00;99.90;;;;;;4988129;28;20098;-86
2022/04/02 09:47:23;;;;;;;3.65;1.95;;;6.30;99.90;;;;;;4917463;29;20063;-85
2022/04/02 09:50:13;;;;;;;4.80;2.00;;;6.50;99.70;;;;;;4962664;28;20512;-85
2022/04/02 09:53:29;;;;;;;3.88;1.50;;;6.60;99.20;;;;;;4975299;28;20069;-85
2022/04/02 09:56:09;;;;;;;;;;;6.60;98.10;;;;;;4981037;28;20054;-85
2022/04/02 09:59:13;;;;;;;;;;;;;;;;;;;;;
2022/04/02 10:03:04;;;;;;;;;;;;;;;;;;;;;
2022/04/02 10:10:32;;;;;;;3.78;1.15;;;6.60;95.20;;;;;;5048407;28;20038;-83
2022/04/02 10:13:49;;;;;;;2.13;1.10;;;6.50;94.50;;;;;;5078985;28;20038;-83
2022/04/02 10:20:31;;;;;;;5.38;1.55;;;6.40;94.00;;;;;;5087186;28;20050;-83
2022/04/02 10:23:37;;;;;;;2.63;1.25;;;6.40;94.10;;;;;;5086805;27;20054;-82
2022/04/02 10:27:12;;;;;;;2.63;0.73;;;6.60;94.00;;;;;;5110686;27;20031;-85
2022/04/02 10:35:36;;;;;;;4.43;0.70;;;6.50;91.30;;;;;;5018167;28;20049;-83
2022/04/02 10:52:56;;;;;;;1.20;0.50;;;7.30;85.10;;;;;;4862118;29;20392;-83
2022/04/02 10:56:50;;;;;;;;;;;;;;;;;;;;;
2022/04/02 11:13:32;;;;;;;2.17;0.90;;;9.90;79.90;;;;;;4906910;29;20052;-82
2022/04/02 11:17:41;;;;;;;2.08;0.68;;;10.30;78.80;;;;;;4868954;29;20045;-82
2022/04/02 11:21:27;;;;;;;1.75;0.70;;;9.80;75.10;;;;;;4854175;29;20040;-80
2022/04/02 11:24:17;;;;;;;1.45;0.60;;;9.10;75.30;;;;;;4863836;29;20527;-79
2022/04/02 11:31:19;;;;;;;7.28;2.78;;;9.00;77.00;;;;;;4885270;29;20503;-81
2022/04/02 11:38:46;;;;;;;2.25;0.50;;;9.30;75.00;;;;;;4923183;29;20051;-81
2022/04/02 11:41:41;;;;;;;2.95;0.70;;;9.10;72.10;;;;;;4896109;29;20044;-81
2022/04/02 11:44:23;;;;;;;1.02;0.40;;;9.50;69.80;;;;;;4909196;29;20173;-79
2022/04/02 11:46:57;;;;;;;1.55;0.40;;;9.70;67.80;;;;;;5006513;28;20037;-80
2022/04/02 11:49:44;;;;;;;;;;;9.70;67.10;;;;;;5061936;28;20446;-91
2022/04/02 11:52:22;;;;;;;2.85;0.70;;;10.10;68.50;;;;;;5051992;28;19916;-85
2022/04/02 11:55:17;;;;;;;3.97;1.52;;;10.40;66.80;;;;;;5003859;28;20053;-87
2022/04/02 11:58:13;;;;;;;;;;;10.10;68.40;;;;;;5010807;28;20045;-85
2022/04/02 12:00:48;;;;;;;3.05;0.90;;;9.70;69.30;;;;;;5055651;28;19917;-85
2022/04/02 12:03:31;;;;;;;4.40;0.60;;;9.20;71.60;;;;;;5036323;28;20413;-82
2022/04/02 12:06:11;;;;;;;5.43;0.68;;;8.90;73.60;;;;;;5045513;28;20044;-85
2022/04/02 12:08:49;;;;;;;2.88;0.93;;;8.90;75.30;;;;;;5069755;28;20083;-79
2022/04/02 12:11:55;;;;;;;2.67;0.63;;;9.60;75.50;;;;;;5049814;28;20040;-81
2022/04/02 12:14:42;;;;;;;2.55;0.70;;;10.50;72.60;;;;;;5063988;28;20043;-80
2022/04/02 12:18:06;;;;;;;3.45;0.63;;;10.70;69.70;;;;;;5054779;28;20099;-80
2022/04/02 12:21:50;;;;;;;3.20;0.73;;;10.70;70.70;;;;;;5021394;28;20389;-82
2022/04/02 12:24:56;;;;;;;2.72;0.80;;;10.20;72.20;;;;;;5042559;28;20040;-82
2022/04/02 12:31:49;;;;;;;2.40;0.70;;;9.10;75.30;;;;;;5042767;28;20203;-80
2022/04/02 12:34:28;;;;;;;2.88;0.90;;;8.60;76.50;;;;;;4996752;28;20069;-80
2022/04/02 12:37:46;;;;;;;1.60;0.80;;;8.40;76.90;;;;;;4977608;28;20117;-82
2022/04/02 12:40:40;;;;;;;2.80;0.75;;;8.10;77.70;;;;;;4977874;28;20046;-81
2022/04/02 12:43:47;;;;;;;3.00;0.93;;;8.00;78.40;;;;;;4965052;28;20856;-81
2022/04/02 12:46:55;;;;;;;10.68;4.30;;;7.80;78.70;;;;;;4978864;28;20034;-81
2022/04/02 12:49:46;;;;;;;5.63;1.80;;;7.80;79.90;;;;;;4991527;28;20093;-80
2022/04/02 12:52:29;;;;;;;3.25;0.85;;;8.40;81.20;;;;;;4991286;28;20047;-81
2022/04/02 12:55:38;;;;;;;2.92;0.65;;;9.50;79.40;;;;;;4974893;28;20442;-83
2022/04/02 12:58:48;;;;;;;2.67;0.80;;;10.60;75.50;;;;;;4971816;28;20061;-83
2022/04/02 13:01:51;;;;;;;5.40;0.60;;;11.30;74.00;;;;;;4995203;28;20037;-82
2022/04/02 13:04:29;;;;;;;3.40;1.10;;;11.60;71.60;;;;;;4957740;28;20470;-82
2022/04/02 13:08:05;;;;;;;3.42;0.80;;;11.80;70.80;;;;;;4996772;28;20045;-87
2022/04/02 13:10:43;;;;;;;1.70;0.50;;;12.70;69.40;;;;;;5042092;28;20035;-84
2022/04/02 13:14:14;;;;;;;3.72;0.80;;;13.30;67.20;;;;;;5084491;28;20043;-82
2022/04/02 13:17:07;;;;;;;3.67;1.30;;;13.70;64.10;;;;;;5037515;28;20526;-82
2022/04/02 13:23:30;;;;;;;3.88;0.80;;;14.00;60.80;;;;;;5050925;28;20045;-83
2022/04/02 13:26:21;;;;;;;2.75;0.85;;;14.20;59.70;;;;;;5050600;28;20554;-80
2022/04/02 13:29:25;;;;;;;1.60;0.80;;;14.80;59.00;;;;;;5018693;28;20415;-84
2022/04/02 13:32:44;;;;;;;3.45;0.65;;;15.20;56.80;;;;;;5048204;28;20048;-84
2022/04/02 13:35:51;;;;;;;3.03;0.70;;;15.60;55.00;;;;;;5031836;28;20044;-80
2022/04/02 13:38:28;;;;;;;2.85;0.60;;;15.70;53.10;;;;;;5039912;28;20036;-82
2022/04/02 13:41:14;;;;;;;3.55;0.70;;;15.20;53.60;;;;;;5067175;28;20032;-83
2022/04/02 13:44:40;;;;;;;1.95;0.80;;;14.30;54.70;;;;;;5014565;28;20044;-82
2022/04/02 13:47:31;;;;;;;7.13;2.88;;;13.20;55.10;;;;;;5013996;28;20475;-84
2022/04/02 13:50:09;;;;;;;4.32;2.70;;;12.10;57.00;;;;;;5011598;28;20519;-84
2022/04/02 13:52:39;;;;;;;1.50;0.60;;;11.40;57.10;;;;;;5005455;28;20052;-83
2022/04/02 13:55:50;;;;;;;2.40;0.70;;;10.70;59.20;;;;;;5013164;28;20060;-86
2022/04/02 13:58:43;;;;;;;1.48;0.60;;;10.00;59.80;;;;;;5043134;28;20040;-84
2022/04/02 14:02:06;;;;;;;22.38;14.93;;;9.50;61.70;;;;;;4953268;28;20041;-82
2022/04/02 14:05:21;;;;;;;7.03;3.53;;;9.20;63.40;;;;;;4987436;28;20053;-83
2022/04/02 14:08:12;;;;;;;3.65;1.63;;;9.00;64.90;;;;;;5011118;28;20037;-84
2022/04/02 14:11:20;;;;;;;4.45;0.80;;;8.80;66.50;;;;;;4970231;28;20038;-87
2022/04/02 14:14:25;;;;;;;1.73;0.50;;;8.60;67.70;;;;;;4971855;28;20053;-84
2022/04/02 14:24:28;;;;;;;2.78;0.50;;;9.10;66.90;;;;;;4945114;28;20046;-85
2022/04/02 14:27:46;;;;;;;3.28;0.90;;;9.30;66.50;;;;;;5014186;28;20496;-86
2022/04/02 14:30:50;;;;;;;1.02;0.40;;;9.40;65.50;;;;;;5027508;28;20033;-87
2022/04/02 14:41:58;;;;;;;3.67;0.43;;;9.30;65.70;;;;;;5017257;28;21208;-87
2022/04/02 14:46:01;;;;;;;1.83;0.40;;;9.30;64.90;;;;;;4990589;28;20061;-86
2022/04/02 14:49:21;;;;;;;2.22;0.38;;;9.30;64.40;;;;;;4937658;28;20050;-86
2022/04/02 14:52:30;;;;;;;2.33;0.52;;;9.30;63.10;;;;;;4967084;28;20395;-86
2022/04/02 14:55:41;;;;;;;1.67;0.60;;;9.20;63.30;;;;;;4955142;28;20030;-85
2022/04/02 14:58:52;;;;;;;2.60;0.60;;;9.20;63.10;;;;;;4956433;28;20031;-85
2022/04/02 15:02:36;;;;;;;1.90;0.40;;;9.10;63.50;;;;;;4950696;28;20525;-86
2022/04/02 15:05:43;;;;;;;1.52;0.68;;;9.00;64.10;;;;;;4951597;28;20034;-86
2022/04/02 15:12:04;;;;;;;1.02;0.50;;;8.80;65.80;;;;;;4927336;29;20096;-85
2022/04/02 15:15:55;;;;;;;1.63;0.40;;;8.70;65.00;;;;;;4932638;29;20051;-84
2022/04/02 15:19:42;;;;;;;2.97;0.40;;;8.60;65.40;;;;;;4895501;29;20052;-82
2022/04/02 15:22:31;;;;;;;1.92;0.40;;;8.50;63.90;;;;;;4905173;29;20062;-85
2022/04/02 15:25:25;;;;;;;2.45;0.50;;;8.30;64.00;;;;;;4922852;29;20047;-85
2022/04/02 15:27:55;;;;;;;1.38;0.40;;;8.40;65.30;;;;;;5008036;28;20050;-87
2022/04/02 15:30:33;;;;;;;2.17;0.60;;;8.50;65.50;;;;;;5016044;28;20045;-87
2022/04/02 15:33:08;;;;;;;1.95;0.40;;;8.60;65.00;;;;;;5011739;28;20054;-88
2022/04/02 15:35:53;;;;;;;2.17;0.50;;;8.60;65.60;;;;;;4996045;28;20045;-88
2022/04/02 15:38:27;;;;;;;1.23;0.47;;;8.50;65.50;;;;;;5011229;28;20064;-87
2022/04/02 15:41:01;;;;;;;1.73;0.50;;;8.50;66.40;;;;;;4994175;28;20037;-86
2022/04/02 15:43:29;;;;;;;2.33;0.68;;;8.40;66.40;;;;;;4995385;28;20053;-83
2022/04/02 15:46:37;;;;;;;;;;;;;;;;;;;;;
2022/04/02 15:49:10;;;;;;;2.22;0.47;;;8.20;67.60;;;;;;5051542;28;20066;-88
2022/04/02 15:51:52;;;;;;;1.33;0.50;;;8.20;67.80;;;;;;5049546;28;20036;-87
2022/04/02 15:54:32;;;;;;;2.67;0.70;;;8.20;68.30;;;;;;5040639;28;20355;-82
2022/04/02 15:57:04;;;;;;;4.15;0.73;;;8.10;68.90;;;;;;5073553;28;20035;-91
2022/04/02 15:59:33;;;;;;;2.00;0.40;;;8.10;68.70;;;;;;5055073;28;20036;-85
2022/04/02 16:01:59;;;;;;;1.92;0.77;;;7.90;68.40;;;;;;5051000;28;20039;-82
2022/04/02 16:04:26;;;;;;;1.48;0.50;;;7.80;68.70;;;;;;5055280;28;20060;-80
2022/04/02 16:06:59;;;;;;;2.45;0.50;;;7.80;69.00;;;;;;5073712;28;20020;-88
2022/04/02 16:09:48;;;;;;;;;;;7.70;69.40;;;;;;5057349;28;20403;-89
2022/04/02 16:12:32;;;;;;;16.20;7.68;;;7.80;69.60;;;;;;5057693;28;20259;-85
2022/04/02 16:15:25;;;;;;;5.80;2.97;;;7.80;69.70;;;;;;5118153;28;20039;-83
2022/04/02 16:18:10;;;;;;;;;;;7.80;68.50;;;;;;5092723;28;20035;-83
2022/04/02 16:21:37;;;;;;;2.53;0.50;;;7.80;68.30;;;;;;5058352;28;19911;-82
2022/04/02 16:25:03;;;;;;;1.58;0.50;;;7.70;68.10;;;;;;5007208;28;20056;-89
2022/04/02 16:28:15;;;;;;;4.63;2.03;;;7.80;67.80;;;;;;5062197;28;20047;-86
2022/04/02 16:31:03;;;;;;;3.28;1.00;;;7.70;67.10;;;;;;5066699;28;20031;-84
2022/04/02 16:33:32;;;;;;;13.25;6.00;;;7.70;67.10;;;;;;5093187;28;20027;-89
2022/04/02 16:36:03;;;;;;;3.75;2.15;;;7.60;67.10;;;;;;5075443;28;20040;-82
2022/04/02 16:38:54;;;;;;;6.72;2.60;;;7.50;67.40;;;;;;5092539;28;20036;-83
2022/04/02 16:41:58;;;;;;;;;;;;;;;;;;;;;
2022/04/02 16:45:25;;;;;;;2.13;0.90;;;7.20;69.50;;;;;;5065350;28;20040;-85
2022/04/02 16:48:18;;;;;;;3.50;0.68;;;7.00;70.60;;;;;;5095432;28;20040;-87
2022/04/02 16:52:00;;;;;;;1.88;0.50;;;6.90;71.20;;;;;;4990020;28;20054;-86
2022/04/02 16:55:32;;;;;;;15.15;9.35;;;6.80;71.60;;;;;;4979934;28;20550;-82
2022/04/02 16:58:14;;;;;;;3.25;1.13;;;6.70;71.70;;;;;;4998422;28;20037;-80
2022/04/02 17:01:03;;;;;;;1.40;0.50;;;6.70;71.90;;;;;;5006702;28;20034;-78
2022/04/02 17:03:53;;;;;;;2.33;0.52;;;6.70;71.50;;;;;;4981038;28;20041;-78
2022/04/02 17:06:46;;;;;;;1.52;0.50;;;6.70;71.40;;;;;;4993594;28;21339;-89
2022/04/02 17:17:30;;;;;;;16.10;8.38;;;6.60;71.20;;;;;;4968335;28;20042;-82
2022/04/02 17:20:05;;;;;;;6.85;1.73;;;6.50;71.30;;;;;;4938691;28;20050;-81
2022/04/02 17:23:02;;;;;;;13.57;7.40;;;6.50;71.50;;;;;;4983888;28;20055;-82
2022/04/02 17:26:44;;;;;;;3.38;1.23;;;6.40;71.50;;;;;;5009853;28;20030;-81
2022/04/02 17:29:52;;;;;;;20.13;8.88;;;6.20;71.80;;;;;;5006141;28;20082;-81
2022/04/02 17:33:27;;;;;;;15.75;8.07;;;6.10;72.20;;;;;;5020828;28;20041;-84
2022/04/02 17:37:10;;;;;;;4.80;1.90;;;6.00;72.70;;;;;;4949383;29;20050;-83
2022/04/02 17:40:28;;;;;;;2.90;0.80;;;5.90;73.00;;;;;;4947338;28;20072;-81
2022/04/02 17:43:38;;;;;;;2.13;0.60;;;5.90;73.10;;;;;;4989055;28;20057;-88
2022/04/02 17:50:31;;;;;;;3.13;0.75;;;5.90;73.80;;;;;;4979186;28;20386;-83
2022/04/02 17:54:27;;;;;;;2.53;0.50;;;5.90;73.80;;;;;;5014128;28;20033;-88
2022/04/02 17:58:20;;;;;;;3.58;0.47;;;5.80;74.30;;;;;;4944016;28;20047;-79
2022/04/02 18:00:52;;;;;;;3.30;0.93;;;5.80;74.50;;;;;;4960310;28;20436;-81
2022/04/02 18:03:44;;;;;;;1.85;0.63;;;5.70;74.50;;;;;;5062477;28;20052;-89
2022/04/02 18:09:36;;;;;;;4.35;2.10;;;5.70;74.40;;;;;;5064939;28;20048;-81
2022/04/02 18:12:20;;;;;;;7.50;4.73;;;5.70;74.30;;;;;;5074691;28;20028;-81
2022/04/02 18:15:06;;;;;;;9.73;5.13;;;5.70;75.00;;;;;;5077694;28;20059;-80
2022/04/02 18:18:12;;;;;;;7.55;3.42;;;5.60;74.30;;;;;;5084229;27;20039;-81
2022/04/02 18:20:46;;;;;;;6.00;2.03;;;5.60;73.80;;;;;;5030880;28;20040;-78
2022/04/02 18:23:14;;;;;;;3.35;1.27;;;5.50;73.60;;;;;;5046120;28;20056;-78
2022/04/02 18:25:49;;;;;;;2.80;0.90;;;5.40;74.00;;;;;;5027656;28;20036;-79
2022/04/02 18:28:33;;;;;;;2.03;0.75;;;5.20;74.20;;;;;;5045136;28;20036;-77
2022/04/02 18:31:06;;;;;;;3.72;0.70;;;5.20;74.40;;;;;;5035961;28;20035;-78
2022/04/02 18:33:33;;;;;;;3.47;0.98;;;5.10;74.80;;;;;;5063867;28;20045;-78
2022/04/02 18:36:05;;;;;;;3.67;0.73;;;5.00;75.10;;;;;;5063111;28;20040;-78
2022/04/02 18:38:32;;;;;;;4.13;0.80;;;4.90;75.30;;;;;;5005213;28;20037;-78
2022/04/02 18:41:02;;;;;;;2.22;0.70;;;4.80;75.60;;;;;;5030187;28;20049;-82
2022/04/02 18:44:06;;;;;;;6.82;1.20;;;4.80;75.80;;;;;;5039464;28;20041;-82